createdAt,value
2022-10-31T00:06:41.688Z,7.75
2022-10-31T00:16:43.084Z,6.90
2022-10-31T00:26:44.438Z,7.20
2022-10-31T00:36:45.877Z,6.90
2022-10-31T00:46:47.226Z,6.97
2022-10-31T00:56:48.540Z,7.07
2022-10-31T01:06:49.895Z,7.63
2022-10-31T01:16:51.310Z,7.50
2022-10-31T01:26:52.653Z,7.10
2022-10-31T01:36:53.998Z,7.60
2022-10-31T01:47:06.202Z,7.70
2022-10-31T01:57:11.314Z,7.17
2022-10-31T02:07:20.395Z,8.13
2022-10-31T02:17:21.763Z,8.10
2022-10-31T02:27:48.103Z,8.20
2022-10-31T02:38:03.755Z,8.30
2022-10-31T02:48:13.110Z,7.70
2022-10-31T03:08:55.828Z,8.93
2022-10-31T03:19:14.747Z,7.80
2022-10-31T03:29:20.318Z,8.13
2022-10-31T03:39:23.611Z,8.23
2022-10-31T03:49:25.330Z,10.20
2022-10-31T03:59:42.165Z,9.25
2022-10-31T04:09:48.660Z,8.52
2022-10-31T04:19:50.024Z,9.00
2022-10-31T04:29:51.343Z,9.77
2022-10-31T04:39:52.687Z,10.23
2022-10-31T04:49:54.015Z,15.57
2022-10-31T04:59:55.368Z,13.93
2022-10-31T05:09:56.703Z,11.57
2022-10-31T05:19:58.108Z,10.87
2022-10-31T05:40:07.150Z,9.77
2022-10-31T05:50:10.997Z,9.13
2022-10-31T06:00:13.012Z,10.20
2022-10-31T06:10:14.785Z,9.30
2022-10-31T06:20:16.143Z,9.32
2022-10-31T06:30:17.572Z,10.23
2022-10-31T06:40:18.991Z,10.27
2022-10-31T06:50:22.814Z,10.35
2022-10-31T07:00:27.004Z,10.77
2022-10-31T07:10:32.083Z,13.03
2022-10-31T07:20:36.345Z,12.70
2022-10-31T07:30:38.979Z,12.10
2022-10-31T07:40:41.507Z,11.60
2022-10-31T07:50:42.829Z,13.27
2022-10-31T08:00:46.093Z,14.27
2022-10-31T08:10:47.518Z,13.40
2022-10-31T08:20:48.837Z,14.67
2022-10-31T08:30:50.215Z,15.18
2022-10-31T08:40:51.610Z,15.07
2022-10-31T08:50:58.951Z,15.77
2022-10-31T09:01:02.035Z,14.32
2022-10-31T09:11:04.711Z,14.82
2022-10-31T09:21:06.079Z,14.43
2022-10-31T09:31:07.534Z,15.73
2022-10-31T09:41:20.156Z,15.25
2022-10-31T09:51:26.809Z,15.40
2022-10-31T10:01:39.336Z,15.00
2022-10-31T10:12:15.848Z,16.92
2022-10-31T10:22:27.040Z,14.43
2022-10-31T10:32:31.005Z,14.73
2022-10-31T10:42:51.148Z,13.80
2022-10-31T10:53:09.600Z,14.65
2022-10-31T11:03:11.579Z,14.77
2022-10-31T11:13:12.862Z,13.10
2022-10-31T11:23:20.314Z,14.07
2022-10-31T11:33:47.331Z,15.77
2022-10-31T11:43:59.591Z,11.93
2022-10-31T11:54:03.683Z,12.27
2022-10-31T12:04:10.441Z,11.77
2022-10-31T12:14:23.883Z,12.83
2022-10-31T12:24:46.396Z,11.73
2022-10-31T12:34:49.307Z,11.45
2022-10-31T12:45:29.829Z,11.33
2022-10-31T12:56:00.887Z,11.30
2022-10-31T13:06:10.466Z,10.38
2022-10-31T13:16:21.326Z,9.10
2022-10-31T13:26:38.331Z,8.87
2022-10-31T13:36:57.956Z,8.02
2022-10-31T13:46:59.530Z,8.17
2022-10-31T13:57:01.586Z,8.43
2022-10-31T14:07:08.866Z,7.97
2022-10-31T14:17:20.305Z,7.18
2022-10-31T14:27:22.574Z,7.50
2022-10-31T14:37:39.209Z,7.90
2022-10-31T14:48:06.821Z,8.27
2022-10-31T14:58:09.765Z,8.50
2022-10-31T15:08:26.405Z,8.77
2022-10-31T15:18:29.035Z,9.15
2022-10-31T15:28:32.103Z,7.40
2022-10-31T15:38:33.884Z,7.33
2022-10-31T15:48:36.027Z,7.53
2022-10-31T15:58:46.846Z,5.90
2022-10-31T16:08:50.241Z,5.13
2022-10-31T16:18:53.595Z,5.03
2022-10-31T16:29:03.355Z,5.10
2022-10-31T16:39:07.807Z,5.60
2022-10-31T16:49:10.447Z,5.07
2022-10-31T16:59:16.022Z,7.00
2022-10-31T17:09:17.785Z,7.13
2022-10-31T17:19:19.234Z,6.83
2022-10-31T17:29:20.589Z,7.75
2022-10-31T17:39:23.025Z,9.48
2022-10-31T17:49:24.358Z,9.00
2022-10-31T17:59:27.544Z,8.47
2022-10-31T18:09:28.900Z,8.43
2022-10-31T18:19:30.228Z,6.30
2022-10-31T18:29:31.585Z,5.50
2022-10-31T18:39:33.057Z,4.13
2022-10-31T18:49:34.503Z,4.23
2022-10-31T18:59:36.023Z,3.67
2022-10-31T19:09:37.423Z,2.90
2022-10-31T19:19:39.265Z,2.80
2022-10-31T19:29:42.158Z,3.17
2022-10-31T19:39:44.420Z,3.20
2022-10-31T19:49:46.010Z,3.17
2022-10-31T19:59:47.341Z,3.40
2022-10-31T20:09:48.725Z,3.70
2022-10-31T20:19:50.121Z,3.55
2022-10-31T20:29:51.783Z,3.23
2022-10-31T20:39:55.727Z,3.63
2022-10-31T20:49:58.018Z,3.72
2022-10-31T20:59:59.353Z,3.60
2022-10-31T21:10:00.668Z,3.80
2022-10-31T21:20:02.417Z,4.20
2022-10-31T21:30:04.123Z,3.40
2022-10-31T21:40:06.008Z,3.80
2022-10-31T21:50:08.006Z,3.47
2022-10-31T22:00:10.058Z,3.20
2022-10-31T22:10:12.039Z,3.80
2022-10-31T22:20:13.426Z,3.77
2022-10-31T22:30:14.849Z,2.95
2022-10-31T22:40:16.670Z,4.13
2022-10-31T22:50:18.039Z,3.57
2022-10-31T23:00:19.981Z,3.97
2022-10-31T23:10:21.302Z,4.15
2022-10-31T23:20:22.975Z,3.70
2022-10-31T23:30:24.319Z,3.83
2022-10-31T23:40:25.637Z,3.60
2022-10-31T23:50:27.032Z,3.80
